createdAt,value
2019-01-18T06:14:10.974Z,40.60
2019-01-18T06:16:40.104Z,37.90
2019-01-18T06:19:08.839Z,38.50
2019-01-18T06:21:37.682Z,38.80
2019-01-18T06:24:06.639Z,38.90
2019-01-18T06:26:36.871Z,39.10
2019-01-18T06:31:34.328Z,39.20
2019-01-18T06:34:03.483Z,39.10
2019-01-18T06:36:32.340Z,39.20
2019-01-18T06:39:02.407Z,39.20
2019-01-18T06:41:35.364Z,39.10
2019-01-18T06:44:04.164Z,38.70
2019-01-18T06:46:33.327Z,39.20
2019-01-18T06:49:02.672Z,39.20
2019-01-18T06:51:31.376Z,39.80
2019-01-18T06:54:00.088Z,39.20
2019-01-18T06:56:29.356Z,39.20
2019-01-18T06:58:58.230Z,39.70
2019-01-18T07:01:27.540Z,39.00
2019-01-18T07:03:57.228Z,39.10
2019-01-18T07:06:26.331Z,39.10
2019-01-18T07:08:55.363Z,39.10
2019-01-18T07:11:24.247Z,39.90
2019-01-18T07:13:53.116Z,39.20
2019-01-18T07:16:22.182Z,39.20
2019-01-18T07:18:50.901Z,39.10
2019-01-18T07:21:21.015Z,39.10
2019-01-18T07:23:50.166Z,39.00
2019-01-18T07:26:21.164Z,39.00
2019-01-18T07:28:51.806Z,38.90
2019-01-18T07:31:21.076Z,38.70
2019-01-18T07:33:49.960Z,38.70
2019-01-18T07:36:18.805Z,38.50
2019-01-18T07:38:48.120Z,38.60
2019-01-18T07:41:18.784Z,38.40
2019-01-18T07:43:47.481Z,38.40
2019-01-18T07:48:45.909Z,38.50
2019-01-18T07:51:14.651Z,38.60
2019-01-18T07:53:43.359Z,38.70
2019-01-18T07:56:12.491Z,38.70
2019-01-18T07:58:41.495Z,38.60
2019-01-18T08:01:10.847Z,38.50
2019-01-18T08:03:39.615Z,38.30
2019-01-18T08:06:08.340Z,38.30
2019-01-18T08:08:37.105Z,38.20
2019-01-18T08:11:05.813Z,38.10
2019-01-18T08:13:34.689Z,38.00
2019-01-18T08:16:03.431Z,37.70
2019-01-18T08:18:32.596Z,37.90
2019-01-18T08:21:01.343Z,37.70
2019-01-18T08:23:30.769Z,37.50
2019-01-18T08:26:00.008Z,37.60
2019-01-18T08:28:29.517Z,37.40
2019-01-18T08:30:59.229Z,37.60
2019-01-18T08:33:29.459Z,37.00
2019-01-18T08:35:58.619Z,37.50
2019-01-18T08:38:27.744Z,37.50
2019-01-18T08:40:57.252Z,37.40
2019-01-18T08:43:26.038Z,37.20
2019-01-18T08:45:58.316Z,37.20
2019-01-18T08:48:27.154Z,37.10
2019-01-18T08:50:56.023Z,36.90
2019-01-18T08:53:25.175Z,36.80
2019-01-18T08:55:54.207Z,36.70
2019-01-18T08:58:22.923Z,36.70
2019-01-18T09:00:51.738Z,36.60
2019-01-18T09:03:20.901Z,36.50
2019-01-18T09:05:50.495Z,36.50
2019-01-18T09:08:20.637Z,36.50
2019-01-18T09:10:49.428Z,36.60
2019-01-18T09:13:18.473Z,36.60
2019-01-18T09:15:47.352Z,36.60
2019-01-18T09:18:16.180Z,36.50
2019-01-18T09:20:45.049Z,36.40
2019-01-18T09:23:13.997Z,36.30
2019-01-18T09:25:43.127Z,36.50
2019-01-18T09:28:12.420Z,36.40
2019-01-18T09:30:41.796Z,36.30
2019-01-18T09:33:11.031Z,36.40
2019-01-18T09:35:40.566Z,36.40
2019-01-18T09:38:17.740Z,36.40
2019-01-18T09:40:41.107Z,36.30
2019-01-18T09:43:10.495Z,36.30
2019-01-18T09:45:39.339Z,36.30
2019-01-18T09:48:10.032Z,36.20
2019-01-18T09:50:38.841Z,36.30
2019-01-18T09:53:09.704Z,36.40
2019-01-18T09:55:38.416Z,36.30
2019-01-18T09:58:07.547Z,36.40
2019-01-18T10:00:37.993Z,36.40
2019-01-18T10:03:08.463Z,36.50
2019-01-18T10:05:37.457Z,36.50
2019-01-18T10:08:09.785Z,36.40
2019-01-18T10:10:37.646Z,36.50
2019-01-18T10:13:06.428Z,36.40
2019-01-18T10:15:41.717Z,36.50
2019-01-18T10:18:10.689Z,36.50
2019-01-18T10:20:39.496Z,36.90
2019-01-18T10:23:09.457Z,37.60
2019-01-18T10:25:38.348Z,37.50
2019-01-18T10:28:07.207Z,37.80
2019-01-18T10:30:36.611Z,37.80
2019-01-18T10:33:05.567Z,37.70
2019-01-18T10:35:34.331Z,37.40
2019-01-18T10:38:03.119Z,37.10
2019-01-18T10:40:32.695Z,36.80
2019-01-18T10:43:01.465Z,36.70
2019-01-18T10:45:30.291Z,36.70
2019-01-18T10:48:00.039Z,37.30
2019-01-18T10:50:30.674Z,36.50
2019-01-18T10:53:00.274Z,36.50
2019-01-18T10:55:29.307Z,37.00
2019-01-18T10:57:58.368Z,37.00
2019-01-18T11:00:30.855Z,37.00
2019-01-18T11:03:00.013Z,37.20
2019-01-18T11:05:28.947Z,36.80
2019-01-18T11:07:58.048Z,36.70
2019-01-18T11:10:27.300Z,36.70
2019-01-18T11:12:56.017Z,36.60
2019-01-18T11:15:27.612Z,36.60
2019-01-18T11:17:56.928Z,36.60
2019-01-18T11:20:29.223Z,37.20
2019-01-18T11:22:59.891Z,37.60
2019-01-18T11:27:57.633Z,37.30
2019-01-18T11:30:27.442Z,37.00
2019-01-18T11:32:56.229Z,37.10
2019-01-18T11:35:25.269Z,36.80
2019-01-18T11:37:54.345Z,37.00
2019-01-18T11:40:23.249Z,36.60
2019-01-18T11:42:52.403Z,36.40
2019-01-18T11:45:21.237Z,36.30
2019-01-18T11:47:50.999Z,36.40
2019-01-18T11:50:22.051Z,36.30
2019-01-18T11:52:50.825Z,36.60
2019-01-18T11:55:20.387Z,36.60
2019-01-18T11:57:49.378Z,36.70
2019-01-18T12:00:20.513Z,36.60
2019-01-18T12:02:51.074Z,36.50
2019-01-18T12:05:20.435Z,36.50
2019-01-18T12:07:49.256Z,36.90
2019-01-18T12:10:21.220Z,36.70
2019-01-18T12:12:50.646Z,36.70
2019-01-18T12:15:21.620Z,36.70
2019-01-18T12:17:52.466Z,38.20
2019-01-18T12:20:24.229Z,37.00
2019-01-18T12:22:53.399Z,36.80
2019-01-18T12:25:22.129Z,36.70
2019-01-18T12:27:50.974Z,36.60
2019-01-18T12:30:22.515Z,36.50
2019-01-18T12:32:52.179Z,36.60
2019-01-18T12:35:21.330Z,36.50
2019-01-18T12:37:50.093Z,36.50
2019-01-18T12:40:19.990Z,36.40
2019-01-18T12:42:49.783Z,36.40
2019-01-18T12:45:20.226Z,36.50
2019-01-18T12:47:49.012Z,36.50
2019-01-18T12:50:20.744Z,36.60
2019-01-18T12:52:49.475Z,36.50
2019-01-18T12:55:18.552Z,36.40
2019-01-18T12:57:47.285Z,36.50
2019-01-18T13:00:17.965Z,36.50
2019-01-18T13:02:47.067Z,36.40
2019-01-18T13:05:19.485Z,36.40
2019-01-18T13:07:50.104Z,36.40
2019-01-18T13:10:19.043Z,36.30
2019-01-18T13:12:48.182Z,36.60
2019-01-18T13:15:22.699Z,36.50
2019-01-18T13:17:51.441Z,36.30
2019-01-18T13:20:20.182Z,36.40
2019-01-18T13:22:49.189Z,36.30
2019-01-18T13:25:18.313Z,36.40
2019-01-18T13:27:47.468Z,36.30
2019-01-18T13:30:17.058Z,36.20
2019-01-18T13:32:46.962Z,36.30
2019-01-18T13:35:16.076Z,36.30
2019-01-18T13:37:45.196Z,36.20
2019-01-18T13:40:16.372Z,35.90
2019-01-18T13:42:45.714Z,36.30
2019-01-18T13:45:17.083Z,36.30
2019-01-18T13:47:45.969Z,36.20
2019-01-18T13:50:16.800Z,36.50
2019-01-18T13:52:46.281Z,36.30
2019-01-18T13:55:18.266Z,36.60
2019-01-18T13:57:47.359Z,36.60
2019-01-18T14:00:16.341Z,36.60
2019-01-18T14:02:48.625Z,37.40
2019-01-18T14:05:15.414Z,37.50
2019-01-18T14:07:44.460Z,36.80
2019-01-18T14:10:17.762Z,36.60
2019-01-18T14:12:46.631Z,36.50
2019-01-18T14:15:16.957Z,36.30
2019-01-18T14:20:14.632Z,36.20
2019-01-18T14:22:43.419Z,36.10
2019-01-18T14:25:12.847Z,36.00
2019-01-18T14:27:42.048Z,36.00
2019-01-18T14:30:15.223Z,35.90
2019-01-18T14:32:43.982Z,35.90
2019-01-18T14:35:13.779Z,35.80
2019-01-18T14:37:42.946Z,36.50
2019-01-18T14:40:13.003Z,35.70
2019-01-18T14:42:42.401Z,35.90
2019-01-18T14:45:14.692Z,35.90
2019-01-18T14:47:43.523Z,35.70
2019-01-18T14:50:15.344Z,35.70
2019-01-18T14:52:45.616Z,35.70
2019-01-18T14:55:14.869Z,35.70
2019-01-18T14:57:43.843Z,35.70
2019-01-18T15:00:17.983Z,35.80
2019-01-18T15:02:47.059Z,35.70
2019-01-18T15:05:16.149Z,35.70
2019-01-18T15:07:45.783Z,35.80
2019-01-18T15:10:16.654Z,35.70
2019-01-18T15:12:45.853Z,35.90
2019-01-18T15:15:15.644Z,36.00
2019-01-18T15:17:44.757Z,36.00
2019-01-18T15:20:18.140Z,35.90
2019-01-18T15:22:48.532Z,36.00
2019-01-18T15:25:16.536Z,36.10
2019-01-18T15:27:45.883Z,36.20
2019-01-18T15:30:18.344Z,36.20
2019-01-18T15:32:47.927Z,36.20
2019-01-18T15:35:20.734Z,36.30
2019-01-18T15:37:49.169Z,35.60
2019-01-18T15:40:20.648Z,36.20
2019-01-18T15:42:49.468Z,36.30
2019-01-18T15:45:18.507Z,36.60
2019-01-18T15:47:47.413Z,36.20
2019-01-18T15:50:21.944Z,36.30
2019-01-18T15:52:51.152Z,36.40
2019-01-18T15:55:20.435Z,36.50
2019-01-18T15:57:49.497Z,36.30
2019-01-18T16:00:22.214Z,36.30
2019-01-18T16:02:52.015Z,36.50
2019-01-18T16:05:22.370Z,36.50
2019-01-18T16:07:51.103Z,36.60
2019-01-18T16:10:19.963Z,36.50
2019-01-18T16:12:48.803Z,36.40
2019-01-18T16:17:49.200Z,36.50
2019-01-18T16:20:19.512Z,36.40
2019-01-18T16:22:50.357Z,36.40
2019-01-18T16:25:22.019Z,36.50
2019-01-18T16:27:50.755Z,36.50
2019-01-18T16:30:20.117Z,36.50
2019-01-18T16:32:49.680Z,36.50
2019-01-18T16:35:19.375Z,36.50
2019-01-18T16:37:49.371Z,36.50
2019-01-18T16:40:21.133Z,36.50
2019-01-18T16:42:54.995Z,36.60
2019-01-18T16:45:23.833Z,36.60
2019-01-18T16:47:52.987Z,36.60
2019-01-18T16:50:22.408Z,36.60
2019-01-18T16:52:51.440Z,36.70
2019-01-18T16:55:20.206Z,36.60
2019-01-18T16:57:49.480Z,36.70
2019-01-18T17:00:23.800Z,36.60
2019-01-18T17:02:52.921Z,36.40
2019-01-18T17:05:21.791Z,36.60
2019-01-18T17:07:51.143Z,36.70
2019-01-18T17:10:20.640Z,36.70
2019-01-18T17:12:50.982Z,36.60
2019-01-18T17:15:18.820Z,36.60
2019-01-18T17:17:48.016Z,36.60
2019-01-18T17:20:20.841Z,36.60
2019-01-18T17:22:50.051Z,36.70
2019-01-18T17:25:18.798Z,36.60
2019-01-18T17:27:47.609Z,36.60
2019-01-18T17:30:18.433Z,36.60
2019-01-18T17:32:48.156Z,36.50
2019-01-18T17:35:20.664Z,36.60
2019-01-18T17:37:54.395Z,36.70
2019-01-18T17:40:30.909Z,36.60
2019-01-18T17:43:17.604Z,36.60
2019-01-18T17:48:01.671Z,36.70
2019-01-18T17:52:48.819Z,36.70
2019-01-18T17:55:24.770Z,36.70
2019-01-18T17:58:05.555Z,36.80
2019-01-18T18:00:58.309Z,36.80
2019-01-18T18:06:15.895Z,36.80
2019-01-18T18:08:51.703Z,37.50
2019-01-18T18:13:41.548Z,36.90
2019-01-18T18:16:35.104Z,36.90
2019-01-18T18:19:29.847Z,36.90
2019-01-18T18:22:44.819Z,36.90
2019-01-18T18:26:29.147Z,36.90
2019-01-18T18:29:16.456Z,36.90
2019-01-18T18:33:27.746Z,36.90
2019-01-18T18:37:15.927Z,36.90
2019-01-18T18:39:57.938Z,36.90
2019-01-18T18:42:36.977Z,36.40
2019-01-18T18:46:22.376Z,36.90
2019-01-18T18:49:14.825Z,36.90
2019-01-18T18:52:00.051Z,37.00
2019-01-18T18:56:09.675Z,37.00
2019-01-18T18:59:50.081Z,37.00
2019-01-18T19:02:34.442Z,36.90
2019-01-18T19:05:15.050Z,36.90
2019-01-18T19:08:08.627Z,36.90
2019-01-18T19:10:51.569Z,37.00
2019-01-18T19:13:44.011Z,37.00
2019-01-18T19:16:22.657Z,37.10
2019-01-18T19:21:06.001Z,36.90
2019-01-18T19:23:46.607Z,36.90
2019-01-18T19:28:30.291Z,36.90
2019-01-18T19:33:14.195Z,36.80
2019-01-18T19:36:51.883Z,36.90
2019-01-18T19:39:35.960Z,36.90
2019-01-18T19:42:47.414Z,36.90
2019-01-18T19:45:33.961Z,36.90
2019-01-18T19:49:15.317Z,36.90
2019-01-18T19:52:02.414Z,37.10
2019-01-18T19:54:39.368Z,37.20
2019-01-18T19:57:19.344Z,37.10
2019-01-18T20:00:09.018Z,37.00
2019-01-18T20:02:53.347Z,37.00
2019-01-18T20:05:33.152Z,37.00
2019-01-18T20:08:11.692Z,37.10
2019-01-18T20:11:51.422Z,37.10
2019-01-18T20:14:35.446Z,37.00
2019-01-18T20:17:13.981Z,37.00
2019-01-18T20:20:08.682Z,37.00
2019-01-18T20:22:48.764Z,36.90
2019-01-18T20:25:23.359Z,36.90
2019-01-18T20:28:04.179Z,36.90
2019-01-18T20:31:11.551Z,37.00
2019-01-18T20:33:58.328Z,36.90
2019-01-18T20:37:48.243Z,36.90
2019-01-18T20:41:33.313Z,36.80
2019-01-18T20:45:18.378Z,36.80
2019-01-18T20:48:03.171Z,36.90
2019-01-18T20:51:16.729Z,36.80
2019-01-18T20:54:05.008Z,36.80
2019-01-18T20:56:43.612Z,36.80
2019-01-18T20:59:57.714Z,36.80
2019-01-18T21:03:43.278Z,36.70
2019-01-18T21:06:25.317Z,36.80
2019-01-18T21:09:05.380Z,36.80
2019-01-18T21:11:45.248Z,36.80
2019-01-18T21:15:30.547Z,36.70
2019-01-18T21:18:16.470Z,36.80
2019-01-18T21:21:03.632Z,36.80
2019-01-18T21:24:05.283Z,36.80
2019-01-18T21:26:44.370Z,36.80
2019-01-18T21:30:26.973Z,36.90
2019-01-18T21:33:07.720Z,36.90
2019-01-18T21:35:49.785Z,36.90
2019-01-18T21:39:00.563Z,36.80
2019-01-18T21:42:45.285Z,36.90
2019-01-18T21:46:31.515Z,36.90
2019-01-18T21:49:09.468Z,37.10
2019-01-18T21:53:10.127Z,37.00
